createdAt,value
2017-12-13T00:00:05.621Z,1.20
2017-12-13T00:02:33.217Z,1.30
2017-12-13T00:05:01.694Z,1.30
2017-12-13T00:07:29.306Z,1.30
2017-12-13T00:09:56.917Z,1.40
2017-12-13T00:12:24.523Z,1.30
2017-12-13T00:14:52.121Z,1.40
2017-12-13T00:17:19.748Z,1.40
2017-12-13T00:19:48.102Z,1.60
2017-12-13T00:22:15.732Z,1.60
2017-12-13T00:24:43.330Z,1.60
2017-12-13T00:27:11.729Z,1.60
2017-12-13T00:29:40.082Z,1.60
2017-12-13T00:32:08.497Z,1.60
2017-12-13T00:34:36.133Z,1.60
2017-12-13T00:37:03.738Z,1.50
2017-12-13T00:39:31.338Z,1.60
2017-12-13T00:41:59.024Z,1.50
2017-12-13T00:44:29.211Z,1.50
2017-12-13T00:46:56.834Z,1.60
2017-12-13T00:49:24.452Z,1.60
2017-12-13T00:51:52.826Z,1.70
2017-12-13T00:54:20.447Z,1.70
2017-12-13T00:56:48.073Z,1.80
2017-12-13T00:59:15.759Z,1.80
2017-12-13T01:01:44.331Z,1.80
2017-12-13T01:04:11.946Z,1.80
2017-12-13T01:06:39.548Z,1.80
2017-12-13T01:09:07.153Z,1.80
2017-12-13T01:11:34.752Z,1.70
2017-12-13T01:14:03.125Z,1.80
2017-12-13T01:16:31.534Z,1.70
2017-12-13T01:18:59.159Z,1.70
2017-12-13T01:21:26.778Z,1.60
2017-12-13T01:23:54.450Z,1.70
2017-12-13T01:26:22.057Z,1.60
2017-12-13T01:28:50.411Z,1.60
2017-12-13T01:31:18.037Z,1.60
2017-12-13T01:33:45.630Z,1.60
2017-12-13T01:36:13.249Z,1.70
2017-12-13T01:38:41.505Z,1.60
2017-12-13T01:41:09.181Z,1.50
2017-12-13T01:43:36.776Z,1.60
2017-12-13T01:46:04.387Z,1.60
2017-12-13T01:48:31.986Z,1.50
2017-12-13T01:50:59.642Z,1.60
2017-12-13T01:53:27.235Z,1.60
2017-12-13T01:55:55.606Z,1.60
2017-12-13T01:58:23.192Z,1.60
2017-12-13T02:00:51.553Z,1.50
2017-12-13T02:03:20.010Z,1.40
2017-12-13T02:05:48.427Z,1.40
2017-12-13T02:08:16.780Z,1.40
2017-12-13T02:10:44.416Z,1.40
2017-12-13T02:13:12.079Z,1.40
2017-12-13T02:15:40.474Z,1.30
2017-12-13T02:18:08.081Z,1.20
2017-12-13T02:20:35.677Z,1.30
2017-12-13T02:23:03.291Z,1.20
2017-12-13T02:25:30.883Z,1.20
2017-12-13T02:27:58.487Z,1.20
2017-12-13T02:30:26.097Z,1.20
2017-12-13T02:32:53.699Z,1.20
2017-12-13T02:35:21.367Z,1.00
2017-12-13T02:37:49.211Z,0.80
2017-12-13T02:40:28.685Z,0.90
2017-12-13T02:42:57.062Z,0.90
2017-12-13T02:45:25.458Z,0.90
2017-12-13T02:47:53.080Z,0.90
2017-12-13T02:50:20.697Z,1.00
2017-12-13T02:52:48.305Z,1.00
2017-12-13T02:55:15.913Z,0.90
2017-12-13T02:57:43.518Z,0.90
2017-12-13T03:00:12.202Z,0.80
2017-12-13T03:02:39.830Z,0.80
2017-12-13T03:05:07.468Z,0.70
2017-12-13T03:07:35.059Z,0.70
2017-12-13T03:10:02.777Z,0.50
2017-12-13T03:12:31.191Z,0.50
2017-12-13T03:14:58.804Z,0.40
2017-12-13T03:17:26.413Z,0.50
2017-12-13T03:19:54.022Z,0.40
2017-12-13T03:22:21.636Z,0.50
2017-12-13T03:24:49.259Z,0.60
2017-12-13T03:27:17.675Z,0.30
2017-12-13T03:29:45.270Z,0.30
2017-12-13T03:32:13.655Z,0.40
2017-12-13T03:34:41.347Z,0.40
2017-12-13T03:37:09.726Z,0.40
2017-12-13T03:39:38.083Z,0.30
2017-12-13T03:42:05.705Z,0.30
2017-12-13T03:44:33.318Z,0.30
2017-12-13T03:47:01.698Z,0.20
2017-12-13T03:49:30.077Z,0.20
2017-12-13T03:51:58.477Z,0.20
2017-12-13T03:54:26.070Z,0.20
2017-12-13T03:56:53.684Z,0.20
2017-12-13T03:59:22.084Z,0.20
2017-12-13T04:01:49.665Z,0.10
2017-12-13T04:04:17.809Z,0.00
2017-12-13T04:06:45.405Z,0.00
2017-12-13T04:09:13.811Z,-0.20
2017-12-13T04:11:41.425Z,-0.20
2017-12-13T04:14:09.031Z,-0.20
2017-12-13T04:16:36.659Z,-0.20
2017-12-13T04:19:04.308Z,-0.10
2017-12-13T04:21:31.918Z,-0.10
2017-12-13T04:23:59.534Z,-0.30
2017-12-13T04:26:27.161Z,-0.10
2017-12-13T04:28:55.526Z,0.10
2017-12-13T04:31:23.150Z,0.10
2017-12-13T04:33:50.744Z,0.00
2017-12-13T04:36:18.351Z,0.10
2017-12-13T04:38:45.963Z,0.10
2017-12-13T04:41:13.620Z,0.10
2017-12-13T04:43:41.233Z,0.00
2017-12-13T04:46:08.865Z,-0.10
2017-12-13T04:48:37.234Z,-0.10
2017-12-13T04:51:05.618Z,0.00
2017-12-13T04:53:33.985Z,0.00
2017-12-13T04:56:02.375Z,-0.10
2017-12-13T04:58:30.762Z,-0.20
2017-12-13T05:00:58.419Z,-0.20
2017-12-13T05:03:26.821Z,-0.30
2017-12-13T05:05:54.431Z,-0.30
2017-12-13T05:08:22.407Z,-0.20
2017-12-13T05:10:50.771Z,-0.30
2017-12-13T05:13:18.402Z,-0.30
2017-12-13T05:15:46.018Z,-0.20
2017-12-13T05:18:14.687Z,-0.30
2017-12-13T05:20:42.278Z,-0.30
2017-12-13T05:23:10.665Z,-0.30
2017-12-13T05:25:38.532Z,-0.30
2017-12-13T05:28:06.233Z,-0.30
2017-12-13T05:30:33.875Z,-0.10
2017-12-13T05:33:01.487Z,0.00
2017-12-13T05:35:29.879Z,0.00
2017-12-13T05:37:58.774Z,0.00
2017-12-13T05:40:26.565Z,0.00
2017-12-13T05:42:54.189Z,0.00
2017-12-13T05:45:22.582Z,0.00
2017-12-13T05:47:50.949Z,0.00
2017-12-13T05:50:19.363Z,0.00
2017-12-13T05:52:47.233Z,0.00
2017-12-13T05:55:14.859Z,-0.10
2017-12-13T05:57:43.219Z,0.00
2017-12-13T06:00:10.839Z,0.00
2017-12-13T06:02:38.469Z,0.00
2017-12-13T06:05:06.087Z,0.10
2017-12-13T06:07:33.811Z,0.10
2017-12-13T06:10:01.424Z,0.10
2017-12-13T06:12:29.801Z,0.10
2017-12-13T06:14:57.409Z,0.10
2017-12-13T06:17:25.042Z,0.20
2017-12-13T06:19:53.414Z,0.10
2017-12-13T06:22:21.811Z,0.20
2017-12-13T06:24:49.415Z,0.20
2017-12-13T06:27:17.892Z,0.20
2017-12-13T06:29:45.502Z,0.20
2017-12-13T06:32:13.873Z,0.20
2017-12-13T06:34:42.655Z,0.20
2017-12-13T06:37:11.012Z,0.20
2017-12-13T06:39:38.630Z,0.10
2017-12-13T06:42:06.258Z,0.10
2017-12-13T06:44:34.652Z,0.00
2017-12-13T06:47:03.362Z,0.00
2017-12-13T06:49:31.046Z,0.00
2017-12-13T06:51:58.657Z,0.00
2017-12-13T06:54:27.046Z,0.10
2017-12-13T06:56:54.665Z,0.00
2017-12-13T06:59:22.262Z,0.10
2017-12-13T07:01:50.649Z,0.00
2017-12-13T07:04:18.327Z,0.00
2017-12-13T07:06:45.953Z,0.00
2017-12-13T07:09:14.379Z,-0.10
2017-12-13T07:11:42.402Z,-0.10
2017-12-13T07:14:10.795Z,-0.20
2017-12-13T07:16:38.405Z,-0.20
2017-12-13T07:19:06.052Z,-0.20
2017-12-13T07:21:33.682Z,-0.20
2017-12-13T07:24:01.298Z,-0.30
2017-12-13T07:26:28.944Z,-0.30
2017-12-13T07:28:57.337Z,-0.30
2017-12-13T07:31:24.922Z,-0.30
2017-12-13T07:33:53.311Z,-0.20
2017-12-13T07:36:21.709Z,-0.10
2017-12-13T07:38:49.340Z,-0.20
2017-12-13T07:41:17.723Z,-0.20
2017-12-13T07:43:46.117Z,-0.10
2017-12-13T07:46:13.737Z,-0.10
2017-12-13T07:48:41.333Z,-0.20
2017-12-13T07:51:08.930Z,-0.20
2017-12-13T07:53:36.593Z,-0.10
2017-12-13T07:56:04.203Z,-0.10
2017-12-13T07:58:32.614Z,0.00
2017-12-13T08:01:00.239Z,0.00
2017-12-13T08:03:28.705Z,0.00
2017-12-13T08:05:56.330Z,0.00
2017-12-13T08:08:23.946Z,0.00
2017-12-13T08:10:52.535Z,-0.10
2017-12-13T08:13:20.901Z,-0.10
2017-12-13T08:15:49.290Z,-0.10
2017-12-13T08:18:17.661Z,-0.10
2017-12-13T08:20:46.102Z,-0.20
2017-12-13T08:23:13.725Z,-0.20
2017-12-13T08:25:41.327Z,-0.10
2017-12-13T08:28:08.927Z,-0.20
2017-12-13T08:30:37.329Z,0.00
2017-12-13T08:33:04.930Z,-0.10
2017-12-13T08:35:32.551Z,0.10
2017-12-13T08:38:00.210Z,0.10
2017-12-13T08:40:27.813Z,0.10
2017-12-13T08:42:55.385Z,0.10
2017-12-13T08:45:23.004Z,0.10
2017-12-13T08:47:50.871Z,0.20
2017-12-13T08:50:18.574Z,0.20
2017-12-13T08:52:46.178Z,0.30
2017-12-13T08:55:13.816Z,0.30
2017-12-13T08:57:42.215Z,0.30
2017-12-13T09:00:09.863Z,0.30
2017-12-13T09:02:38.240Z,0.20
2017-12-13T09:05:06.597Z,0.30
2017-12-13T09:07:34.213Z,0.30
2017-12-13T09:10:01.813Z,0.40
2017-12-13T09:12:29.428Z,0.40
2017-12-13T09:14:57.037Z,0.50
2017-12-13T09:17:24.640Z,0.50
2017-12-13T09:19:52.227Z,0.50
2017-12-13T09:22:19.835Z,0.50
2017-12-13T09:24:48.276Z,0.50
2017-12-13T09:27:15.893Z,0.50
2017-12-13T09:29:44.256Z,0.60
2017-12-13T09:32:12.634Z,0.60
2017-12-13T09:34:41.159Z,0.70
2017-12-13T09:37:08.781Z,0.70
2017-12-13T09:39:37.153Z,0.80
2017-12-13T09:42:05.552Z,0.80
2017-12-13T09:44:33.143Z,0.80
2017-12-13T09:47:01.434Z,0.90
2017-12-13T09:49:29.056Z,0.90
2017-12-13T09:51:56.695Z,0.90
2017-12-13T09:54:25.154Z,1.00
2017-12-13T09:56:52.791Z,1.00
2017-12-13T09:59:20.655Z,1.10
2017-12-13T10:01:48.261Z,1.10
2017-12-13T10:04:16.666Z,1.10
2017-12-13T10:06:44.282Z,1.10
2017-12-13T10:09:11.887Z,1.20
2017-12-13T10:11:39.508Z,1.20
2017-12-13T10:14:07.126Z,1.20
2017-12-13T10:16:34.725Z,1.30
2017-12-13T10:19:02.435Z,1.30
2017-12-13T10:21:30.051Z,1.40
2017-12-13T10:23:57.665Z,1.40
2017-12-13T10:26:25.278Z,1.40
2017-12-13T10:28:52.906Z,1.40
2017-12-13T10:31:20.741Z,1.50
2017-12-13T10:33:48.329Z,1.50
2017-12-13T10:36:15.933Z,1.60
2017-12-13T10:38:44.310Z,1.60
2017-12-13T10:41:12.906Z,1.60
2017-12-13T10:43:41.638Z,1.60
2017-12-13T10:46:09.281Z,1.60
2017-12-13T10:48:36.879Z,1.60
2017-12-13T10:51:04.488Z,1.60
2017-12-13T10:53:32.088Z,1.60
2017-12-13T10:55:59.702Z,1.60
2017-12-13T10:58:27.297Z,1.70
2017-12-13T11:00:54.889Z,1.70
2017-12-13T11:03:22.534Z,1.70
2017-12-13T11:05:50.142Z,1.70
2017-12-13T11:08:17.753Z,1.70
2017-12-13T11:10:45.368Z,1.80
2017-12-13T11:13:12.994Z,1.80
2017-12-13T11:15:40.638Z,1.80
2017-12-13T11:18:08.206Z,1.90
2017-12-13T11:20:35.802Z,1.90
2017-12-13T11:23:04.178Z,2.00
2017-12-13T11:25:32.570Z,2.00
2017-12-13T11:28:00.165Z,2.00
2017-12-13T11:30:27.769Z,2.00
2017-12-13T11:32:56.153Z,2.00
2017-12-13T11:35:25.967Z,2.10
2017-12-13T11:37:54.331Z,2.00
2017-12-13T11:40:22.709Z,2.00
2017-12-13T11:42:51.094Z,2.10
2017-12-13T11:45:19.477Z,2.10
2017-12-13T11:47:47.863Z,2.20
2017-12-13T11:50:16.267Z,2.20
2017-12-13T11:52:43.895Z,2.20
2017-12-13T11:55:12.289Z,2.30
2017-12-13T11:57:39.887Z,2.30
2017-12-13T12:00:07.487Z,2.30
2017-12-13T12:02:35.842Z,2.40
2017-12-13T12:05:03.433Z,2.40
2017-12-13T12:07:31.867Z,2.50
2017-12-13T12:09:59.495Z,2.50
2017-12-13T12:12:27.120Z,2.50
2017-12-13T12:14:54.801Z,2.50
2017-12-13T12:17:23.154Z,2.50
2017-12-13T12:19:50.798Z,2.50
2017-12-13T12:22:18.407Z,2.50
2017-12-13T12:24:46.006Z,2.50
2017-12-13T12:27:13.617Z,2.50
2017-12-13T12:29:41.958Z,2.60
2017-12-13T12:32:09.561Z,2.60
2017-12-13T12:34:37.979Z,2.70
2017-12-13T12:37:05.630Z,2.70
2017-12-13T12:39:33.449Z,2.70
2017-12-13T12:42:01.836Z,2.80
2017-12-13T12:44:30.197Z,2.80
2017-12-13T12:46:57.807Z,2.80
2017-12-13T12:49:25.419Z,2.90
2017-12-13T12:51:53.007Z,2.90
2017-12-13T12:54:20.631Z,3.00
2017-12-13T12:56:48.244Z,3.00
2017-12-13T12:59:15.854Z,3.00
2017-12-13T13:01:43.461Z,3.10
2017-12-13T13:04:11.075Z,3.10
2017-12-13T13:06:38.695Z,3.10
2017-12-13T13:09:06.302Z,3.00
2017-12-13T13:11:33.914Z,3.00
2017-12-13T13:14:01.540Z,3.00
2017-12-13T13:16:29.898Z,3.10
2017-12-13T13:18:57.525Z,3.10
2017-12-13T13:21:25.119Z,3.10
2017-12-13T13:23:54.030Z,3.10
2017-12-13T13:26:21.700Z,3.10
2017-12-13T13:28:49.316Z,3.00
2017-12-13T13:31:16.917Z,3.00
2017-12-13T13:33:45.271Z,3.00
2017-12-13T13:36:12.858Z,3.00
2017-12-13T13:38:41.199Z,3.00
2017-12-13T13:41:08.820Z,3.00
2017-12-13T13:43:36.418Z,3.00
2017-12-13T13:46:04.145Z,3.00
2017-12-13T13:48:31.793Z,3.00
2017-12-13T13:50:59.367Z,3.00
2017-12-13T13:53:26.982Z,3.00
2017-12-13T13:55:54.610Z,3.10
2017-12-13T13:58:22.432Z,3.10
2017-12-13T14:00:50.800Z,3.00
2017-12-13T14:03:19.167Z,3.10
2017-12-13T14:05:46.770Z,3.00
2017-12-13T14:08:14.393Z,3.00
2017-12-13T14:10:41.997Z,3.00
2017-12-13T14:13:09.615Z,3.00
2017-12-13T14:15:37.962Z,3.00
2017-12-13T14:18:05.581Z,3.10
2017-12-13T14:20:33.153Z,3.00
2017-12-13T14:23:00.778Z,2.90
2017-12-13T14:25:29.132Z,3.00
2017-12-13T14:27:56.741Z,3.00
2017-12-13T14:30:24.335Z,3.00
2017-12-13T14:32:51.952Z,3.10
2017-12-13T14:35:19.538Z,3.10
2017-12-13T14:37:47.154Z,3.10
2017-12-13T14:40:15.514Z,3.10
2017-12-13T14:42:43.131Z,3.10
2017-12-13T14:45:10.736Z,3.00
2017-12-13T14:47:39.328Z,3.10
2017-12-13T14:50:06.947Z,3.00
2017-12-13T14:52:34.578Z,3.00
2017-12-13T14:55:02.188Z,2.90
2017-12-13T14:57:29.874Z,2.90
2017-12-13T14:59:57.487Z,2.80
2017-12-13T15:02:25.092Z,2.80
2017-12-13T15:04:52.682Z,2.90
2017-12-13T15:07:20.289Z,2.90
2017-12-13T15:09:47.911Z,2.90
2017-12-13T15:12:15.536Z,2.80
2017-12-13T15:14:43.123Z,2.90
2017-12-13T15:17:10.792Z,2.80
2017-12-13T15:19:38.394Z,2.80
2017-12-13T15:22:06.757Z,2.90
2017-12-13T15:24:34.385Z,2.80
2017-12-13T15:27:01.986Z,2.90
2017-12-13T15:29:29.593Z,2.90
2017-12-13T15:31:57.961Z,3.00
2017-12-13T15:34:25.955Z,3.00
2017-12-13T15:36:53.574Z,3.00
2017-12-13T15:39:21.166Z,3.00
2017-12-13T15:41:49.541Z,3.00
2017-12-13T15:44:17.919Z,3.00
2017-12-13T15:46:45.564Z,3.00
2017-12-13T15:49:13.166Z,3.00
2017-12-13T15:51:40.786Z,3.00
2017-12-13T15:54:08.459Z,3.00
2017-12-13T15:56:36.853Z,3.00
2017-12-13T15:59:05.218Z,3.00
2017-12-13T16:01:33.593Z,3.00
2017-12-13T16:04:01.963Z,3.00
2017-12-13T16:06:29.558Z,3.00
2017-12-13T16:08:57.550Z,3.10
2017-12-13T16:11:25.287Z,3.00
2017-12-13T16:13:52.886Z,3.10
2017-12-13T16:16:20.506Z,3.10
2017-12-13T16:18:48.132Z,3.10
2017-12-13T16:21:15.741Z,3.00
2017-12-13T16:23:43.356Z,3.00
2017-12-13T16:26:11.842Z,2.90
2017-12-13T16:28:39.429Z,2.90
2017-12-13T16:31:07.070Z,2.90
2017-12-13T16:33:35.422Z,2.90
2017-12-13T16:36:03.030Z,2.90
2017-12-13T16:38:30.605Z,2.90
2017-12-13T16:40:58.236Z,2.80
2017-12-13T16:43:26.595Z,2.80
2017-12-13T16:45:54.188Z,2.80
2017-12-13T16:48:21.816Z,2.80
2017-12-13T16:50:49.429Z,2.80
2017-12-13T16:53:17.039Z,2.80
2017-12-13T16:55:44.624Z,2.70
2017-12-13T16:58:12.241Z,2.70
2017-12-13T17:00:39.834Z,2.60
2017-12-13T17:03:08.214Z,2.50
2017-12-13T17:05:36.578Z,2.40
2017-12-13T17:08:04.179Z,2.40
2017-12-13T17:10:31.809Z,2.30
2017-12-13T17:13:00.184Z,2.10
2017-12-13T17:15:28.550Z,2.00
2017-12-13T17:17:56.209Z,1.90
2017-12-13T17:20:23.820Z,1.90
2017-12-13T17:22:51.430Z,1.90
2017-12-13T17:25:19.071Z,1.90
2017-12-13T17:27:46.709Z,1.90
2017-12-13T17:30:14.312Z,1.80
2017-12-13T17:32:41.960Z,1.80
2017-12-13T17:35:09.580Z,1.70
2017-12-13T17:37:37.208Z,1.80
2017-12-13T17:40:05.612Z,1.80
2017-12-13T17:42:33.243Z,1.80
2017-12-13T17:45:01.602Z,1.80
2017-12-13T17:47:29.236Z,1.80
2017-12-13T17:49:56.834Z,1.80
2017-12-13T17:52:24.434Z,1.80
2017-12-13T17:54:52.098Z,1.90
2017-12-13T17:57:19.718Z,1.80
2017-12-13T17:59:47.317Z,1.80
2017-12-13T18:02:14.903Z,1.90
2017-12-13T18:04:42.709Z,1.90
2017-12-13T18:07:10.322Z,2.00
2017-12-13T18:09:37.933Z,2.00
2017-12-13T18:12:05.550Z,2.00
2017-12-13T18:14:33.169Z,2.00
2017-12-13T18:17:00.862Z,2.00
2017-12-13T18:19:28.484Z,2.00
2017-12-13T18:21:56.846Z,2.00
2017-12-13T18:24:24.484Z,2.00
2017-12-13T18:26:52.879Z,2.10
2017-12-13T18:29:20.488Z,2.10
2017-12-13T18:31:48.103Z,2.10
2017-12-13T18:34:15.700Z,2.20
2017-12-13T18:36:43.309Z,2.10
2017-12-13T18:39:10.910Z,2.20
2017-12-13T18:41:39.302Z,2.30
2017-12-13T18:44:06.903Z,2.30
2017-12-13T18:46:34.509Z,2.30
2017-12-13T18:49:02.867Z,2.40
2017-12-13T18:51:30.482Z,2.40
2017-12-13T18:53:58.098Z,2.40
2017-12-13T18:56:26.520Z,2.40
2017-12-13T18:58:54.112Z,2.40
2017-12-13T19:01:21.710Z,2.50
2017-12-13T19:03:50.088Z,2.50
2017-12-13T19:06:18.494Z,2.50
2017-12-13T19:08:46.111Z,2.50
2017-12-13T19:11:13.696Z,2.60
2017-12-13T19:13:41.390Z,2.60
2017-12-13T19:16:09.007Z,2.60
2017-12-13T19:18:36.634Z,2.60
2017-12-13T19:21:04.230Z,2.60
2017-12-13T19:23:32.612Z,2.70
2017-12-13T19:26:00.959Z,2.70
2017-12-13T19:28:28.575Z,2.70
2017-12-13T19:30:56.175Z,2.70
2017-12-13T19:33:23.822Z,2.70
2017-12-13T19:35:51.442Z,2.60
2017-12-13T19:38:19.126Z,2.60
2017-12-13T19:40:46.766Z,2.60
2017-12-13T19:43:14.384Z,2.60
2017-12-13T19:45:42.011Z,2.50
2017-12-13T19:48:09.642Z,2.60
2017-12-13T19:50:37.316Z,2.60
2017-12-13T19:53:05.008Z,2.60
2017-12-13T19:55:32.666Z,2.70
2017-12-13T19:58:00.287Z,2.70
2017-12-13T20:00:28.688Z,2.70
2017-12-13T20:02:56.359Z,2.70
2017-12-13T20:05:23.998Z,2.70
2017-12-13T20:07:51.656Z,2.70
2017-12-13T20:10:19.291Z,2.70
2017-12-13T20:12:46.925Z,2.80
2017-12-13T20:15:16.322Z,2.80
2017-12-13T20:17:43.934Z,2.80
2017-12-13T20:20:11.563Z,2.90
2017-12-13T20:22:39.203Z,2.90
2017-12-13T20:25:06.809Z,2.90
2017-12-13T20:27:34.486Z,2.90
2017-12-13T20:30:02.194Z,2.90
2017-12-13T20:32:30.053Z,2.90
2017-12-13T20:34:57.714Z,2.90
2017-12-13T20:37:25.757Z,3.00
2017-12-13T20:39:53.537Z,3.00
2017-12-13T20:42:21.189Z,3.00
2017-12-13T20:44:48.814Z,2.90
2017-12-13T20:47:17.203Z,3.00
2017-12-13T20:49:45.569Z,3.10
2017-12-13T20:52:13.153Z,3.00
2017-12-13T20:54:40.803Z,3.10
2017-12-13T20:57:09.199Z,3.10
2017-12-13T20:59:36.873Z,3.10
2017-12-13T21:02:04.466Z,3.10
2017-12-13T21:04:32.082Z,3.10
2017-12-13T21:06:59.706Z,3.20
2017-12-13T21:09:27.327Z,3.10
2017-12-13T21:11:54.922Z,3.10
2017-12-13T21:14:22.533Z,3.10
2017-12-13T21:16:50.344Z,3.20
2017-12-13T21:19:17.933Z,3.10
2017-12-13T21:21:46.274Z,3.10
2017-12-13T21:24:13.903Z,3.10
2017-12-13T21:26:41.514Z,3.20
2017-12-13T21:29:09.088Z,3.20
2017-12-13T21:31:36.733Z,3.20
2017-12-13T21:34:04.336Z,3.20
2017-12-13T21:36:31.966Z,3.20
2017-12-13T21:38:59.582Z,3.20
2017-12-13T21:41:27.229Z,3.10
2017-12-13T21:43:54.810Z,3.20
2017-12-13T21:46:22.424Z,3.20
2017-12-13T21:48:50.803Z,3.20
2017-12-13T21:51:19.180Z,3.20
2017-12-13T21:53:46.778Z,3.20
2017-12-13T21:56:14.369Z,3.20
2017-12-13T21:58:41.969Z,3.10
2017-12-13T22:01:09.564Z,3.20
2017-12-13T22:03:37.169Z,3.20
2017-12-13T22:06:05.524Z,3.10
2017-12-13T22:08:33.142Z,3.10
2017-12-13T22:11:00.848Z,3.10
2017-12-13T22:13:28.445Z,3.10
2017-12-13T22:15:56.054Z,3.10
2017-12-13T22:18:23.653Z,3.10
2017-12-13T22:20:52.009Z,3.10
2017-12-13T22:23:19.646Z,3.10
2017-12-13T22:25:47.349Z,3.10
2017-12-13T22:28:15.760Z,3.10
2017-12-13T22:30:43.367Z,3.10
2017-12-13T22:33:10.954Z,3.10
2017-12-13T22:35:39.371Z,3.10
2017-12-13T22:38:06.954Z,3.10
2017-12-13T22:40:34.565Z,3.10
2017-12-13T22:43:02.183Z,3.00
2017-12-13T22:45:29.814Z,3.00
2017-12-13T22:47:57.401Z,3.00
2017-12-13T22:50:25.058Z,3.00
2017-12-13T22:52:52.663Z,3.00
2017-12-13T22:55:21.013Z,3.00
2017-12-13T22:57:48.675Z,3.00
2017-12-13T23:00:16.250Z,3.00
2017-12-13T23:02:44.612Z,3.00
2017-12-13T23:05:12.216Z,3.00
2017-12-13T23:07:39.825Z,3.00
2017-12-13T23:10:07.421Z,3.00
2017-12-13T23:12:35.802Z,2.90
2017-12-13T23:15:04.143Z,3.00
2017-12-13T23:17:31.755Z,2.90
2017-12-13T23:19:59.342Z,2.90
2017-12-13T23:22:26.961Z,2.80
2017-12-13T23:24:55.326Z,2.80
2017-12-13T23:27:23.774Z,2.80
2017-12-13T23:29:51.364Z,2.80
2017-12-13T23:32:19.776Z,2.90
2017-12-13T23:34:47.431Z,2.90
2017-12-13T23:37:15.022Z,2.90
2017-12-13T23:39:42.622Z,2.90
2017-12-13T23:42:10.253Z,2.90
2017-12-13T23:44:37.866Z,2.90
2017-12-13T23:47:05.457Z,2.90
2017-12-13T23:49:33.087Z,2.90
2017-12-13T23:52:00.663Z,3.00
2017-12-13T23:54:28.281Z,3.00
2017-12-13T23:56:56.649Z,3.00
2017-12-13T23:59:24.231Z,3.00
